1857 Hurricane NOT_NAMED (1857279N18282)


IBTrACS version v04r00. Visit IBTrACS website for data access.
Please direct all questions to the IBTrACS Q and A forum

Storm track - Intensity - Wind Radii - Intensity Data - Source Data - All data

Summary Information

Storm ID 1857279N18282
Start Oct 5 12Z
Landfall Oct 6 15Z, Oct 8 15Z
Max Intensity 65 kt (Oct 8 12Z)
End Oct 12 00Z
ATCF IDs
Track status Best track data.

Storm track plot

Map of storm track

Intensity plots

Map of storm track

Radial wind information

No radial wind information for this storm


Position and Intensity Table

BASIN ISO_TIME_________ NATURE LAT LON MLC WIND
degrees north degrees east kts
NA 1857-10-05 12:00:00 TS 18.00 -78.00 30
NA 15:00:00 TS 18.46 -78.11 30
NA 18:00:00 TS 18.90 -78.20 30
NA 21:00:00 TS 19.31 -78.25 30
NA 1857-10-06 00:00:00 TS 19.70 -78.30 30
NA 03:00:00 TS 20.10 -78.40 30
NA 06:00:00 TS 20.50 -78.50 30
NA 09:00:00 TS 20.90 -78.55 30
NA 12:00:00 TS 21.30 -78.60 30
NA 15:00:00 TS 21.71 -78.69 30
NA 18:00:00 TS 22.10 -78.80 30
NA 21:00:00 TS 22.45 -78.94 30
NA 1857-10-07 00:00:00 TS 22.80 -79.10 30
NA 03:00:00 TS 23.20 -79.26 32
NA 06:00:00 TS 23.60 -79.40 35
NA 09:00:00 TS 23.97 -79.52 37
NA 12:00:00 TS 24.30 -79.60 40
NA 15:00:00 TS 24.57 -79.66 42
NA 18:00:00 TS 24.80 -79.70 45
NA 21:00:00 TS 25.01 -79.75 47
NA 1857-10-08 00:00:00 TS 25.20 -79.80 50
NA 03:00:00 TS 25.40 -79.85 52
NA 06:00:00 TS 25.60 -79.90 55
NA 09:00:00 TS 25.77 -79.91 60
NA 12:00:00 TS 26.00 -80.00 65
NA 15:00:00 TS 26.38 -80.31 62
NA 18:00:00 TS 26.80 -80.70 60
NA 21:00:00 TS 27.11 -81.10 55
NA 1857-10-09 00:00:00 TS 27.50 -81.30 50
NA 03:00:00 TS 28.15 -81.08 47
NA 06:00:00 TS 28.90 -80.70 45
NA 09:00:00 TS 29.61 -80.47 45
NA 12:00:00 TS 30.30 -80.20 45
NA 15:00:00 TS 31.00 -79.72 45
NA 18:00:00 TS 31.50 -79.30 45
NA 21:00:00 TS 31.63 -79.19 45
NA 1857-10-10 00:00:00 TS 31.60 -79.20 45
NA 03:00:00 TS 31.66 -79.16 45
NA 06:00:00 TS 31.70 -79.10 45
NA 09:00:00 TS 31.70 -79.00 45
NA 12:00:00 TS 31.70 -78.90 45
NA 15:00:00 TS 31.69 -78.95 45
NA 18:00:00 TS 31.80 -78.80 45
NA 21:00:00 TS 32.16 -78.17 45
NA 1857-10-11 00:00:00 TS 32.60 -77.20 45
NA 03:00:00 TS 32.92 -76.05 45
NA 06:00:00 TS 33.20 -74.80 45
NA 09:00:00 TS 33.56 -73.65 45
NA 12:00:00 TS 33.80 -72.50 45
NA 15:00:00 TS 33.76 -71.31 42
NA 18:00:00 TS 33.60 -70.10 40
NA 21:00:00 TS 33.48 -68.86 37
NA 1857-10-12 00:00:00 TS 33.40 -67.60 35

Source Information

Agency Information
USA
TOKYO
CMA
HKO
NEWDELHI
REUNION
BOM
NADI
WELLINGTON
DS824
TD9636
TD9635
NEUMANN
MLC

All available IBTrACS Data

SEASON BASIN SUBBASIN ISO_TIME_________ NATURE LAT LON DIST2LAND LANDFALL IFLAG USA SSHS MLC LAT MLC LON MLC CLASS MLC WIND STORM SPEED STORM DIR
Year degrees north degrees east km km 1 degrees north degrees east kts kts degrees
1857 NA CS 1857-10-05 12:00:00 TS 18.00 -78.00 15 0 _____________O -1 18.00 -78.00 TD 30 10 347
1857 NA CS 15:00:00 TS 18.46 -78.11 11 11 _____________P -1 18.46 -78.11 TD 30 9 348
1857 NA CS 18:00:00 TS 18.90 -78.20 55 55 _____________O -1 18.90 -78.20 TD 30 9 351
1857 NA CS 21:00:00 TS 19.31 -78.25 84 63 _____________P -1 19.31 -78.25 TD 30 8 353
1857 NA CS 1857-10-06 00:00:00 TS 19.70 -78.30 63 62 _____________O -1 19.70 -78.30 TD 30 8 350
1857 NA CS 03:00:00 TS 20.10 -78.40 78 49 _____________P -1 20.10 -78.40 TD 30 8 347
1857 NA CS 06:00:00 TS 20.50 -78.50 49 11 _____________O -1 20.50 -78.50 TD 30 8 350
1857 NA CS 09:00:00 TS 20.90 -78.55 15 10 _____________P -1 20.90 -78.55 TD 30 8 353
1857 NA CS 12:00:00 TS 21.30 -78.60 10 0 _____________O -1 21.30 -78.60 TD 30 8 351
1857 NA NA 15:00:00 TS 21.71 -78.69 0 0 _____________P -1 21.71 -78.69 TD 30 8 347
1857 NA NA 18:00:00 TS 22.10 -78.80 0 0 _____________O -1 22.10 -78.80 TD 30 8 342
1857 NA NA 21:00:00 TS 22.45 -78.94 22 22 _____________P -1 22.45 -78.94 TD 30 8 338
1857 NA NA 1857-10-07 00:00:00 TS 22.80 -79.10 46 45 _____________O -1 22.80 -79.10 TD 30 8 339
1857 NA NA 03:00:00 TS 23.20 -79.26 63 63 _____________P -1 23.20 -79.26 TD 32 9 341
1857 NA NA 06:00:00 TS 23.60 -79.40 99 99 _____________O -1 23.60 -79.40 TS 35 8 343
1857 NA NA 09:00:00 TS 23.97 -79.52 121 115 _____________P -1 23.97 -79.52 TS 37 7 345
1857 NA NA 12:00:00 TS 24.30 -79.60 116 90 _____________O -1 24.30 -79.60 TS 40 6 348
1857 NA NA 15:00:00 TS 24.57 -79.66 90 78 _____________P -1 24.57 -79.66 TS 42 5 350
1857 NA NA 18:00:00 TS 24.80 -79.70 78 71 _____________O -1 24.80 -79.70 TS 45 4 350
1857 NA NA 21:00:00 TS 25.01 -79.75 61 60 _____________P -1 25.01 -79.75 TS 47 4 348
1857 NA NA 1857-10-08 00:00:00 TS 25.20 -79.80 60 51 _____________O -1 25.20 -79.80 TS 50 4 348
1857 NA NA 03:00:00 TS 25.40 -79.85 41 30 _____________P -1 25.40 -79.85 TS 52 4 348
1857 NA NA 06:00:00 TS 25.60 -79.90 30 20 _____________O -1 25.60 -79.90 TS 55 4 352
1857 NA NA 09:00:00 TS 25.77 -79.91 20 9 _____________P -1 25.77 -79.91 TS 60 4 348
1857 NA NA 12:00:00 TS 26.00 -80.00 9 0 _____________O -1 26.00 -80.00 HU 65 7 329
1857 NA NA 15:00:00 TS 26.38 -80.31 0 0 _____________P -1 26.38 -80.31 HU 62 10 322
1857 NA NA 18:00:00 TS 26.80 -80.70 0 0 _____________O -1 26.80 -80.70 TS 60 10 316
1857 NA NA 21:00:00 TS 27.11 -81.10 0 0 _____________P -1 27.11 -81.10 TS 55 9 323
1857 NA NA 1857-10-09 00:00:00 TS 27.50 -81.30 0 0 _____________O -1 27.50 -81.30 TS 50 10 0
1857 NA NA 03:00:00 TS 28.15 -81.08 0 0 _____________P -1 28.15 -81.08 TS 47 15 21
1857 NA NA 06:00:00 TS 28.90 -80.70 9 9 _____________O -1 28.90 -80.70 TS 45 16 20
1857 NA NA 09:00:00 TS 29.61 -80.47 62 62 _____________P -1 29.61 -80.47 TS 45 15 17
1857 NA NA 12:00:00 TS 30.30 -80.20 117 117 _____________O -1 30.30 -80.20 TS 45 15 25
1857 NA NA 15:00:00 TS 31.00 -79.72 151 139 _____________P -1 31.00 -79.72 TS 45 14 33
1857 NA NA 18:00:00 TS 31.50 -79.30 139 134 _____________O -1 31.50 -79.30 TS 45 8 36
1857 NA NA 21:00:00 TS 31.63 -79.19 134 134 _____________P -1 31.63 -79.19 TS 45 1 40
1857 NA NA 1857-10-10 00:00:00 TS 31.60 -79.20 134 125 _____________O -1 31.60 -79.20 TS 45 0 0
1857 NA NA 03:00:00 TS 31.66 -79.16 125 125 _____________P -1 31.66 -79.16 TS 45 1 40
1857 NA NA 06:00:00 TS 31.70 -79.10 131 131 _____________O -1 31.70 -79.10 TS 45 1 72
1857 NA NA 09:00:00 TS 31.70 -79.00 137 137 _____________P -1 31.70 -79.00 TS 45 2 90
1857 NA NA 12:00:00 TS 31.70 -78.90 144 137 _____________O -1 31.70 -78.90 TS 45 0 106
1857 NA NA 15:00:00 TS 31.69 -78.95 137 136 _____________P -1 31.69 -78.95 TS 45 1 40
1857 NA NA 18:00:00 TS 31.80 -78.80 143 137 _____________O -1 31.80 -78.80 TS 45 8 55
1857 NA NA 21:00:00 TS 32.16 -78.17 143 143 _____________P -1 32.16 -78.17 TS 45 16 59
1857 NA NA 1857-10-11 00:00:00 TS 32.60 -77.20 162 162 _____________O -1 32.60 -77.20 TS 45 19 67
1857 NA NA 03:00:00 TS 32.92 -76.05 204 200 _____________P -1 32.92 -76.05 TS 45 21 73
1857 NA NA 06:00:00 TS 33.20 -74.80 229 229 _____________O -1 33.20 -74.80 TS 45 21 72
1857 NA NA 09:00:00 TS 33.56 -73.65 279 279 _____________P -1 33.56 -73.65 TS 45 20 73
1857 NA NA 12:00:00 TS 33.80 -72.50 352 352 _____________O -1 33.80 -72.50 TS 45 20 84
1857 NA NA 15:00:00 TS 33.76 -71.31 442 442 _____________P -1 33.76 -71.31 TS 42 20 96
1857 NA NA 18:00:00 TS 33.60 -70.10 550 550 _____________O -1 33.60 -70.10 TS 40 21 98
1857 NA NA 21:00:00 TS 33.48 -68.86 654 654 _____________P -1 33.48 -68.86 TS 37 21 95
1857 NA NA 1857-10-12 00:00:00 TS 33.40 -67.60 769 _____________O -1 33.40 -67.60 TS 35 21 94